sensor_id;sensor_type;location;lat;lon;timestamp;pressure;altitude;pressure_sealevel;temperature;humidity
49377;BME280;35253;34.688;33.040;2022-10-31T00:00:13;100804.34;;;22.90;100.00
49377;BME280;35253;34.688;33.040;2022-10-31T00:02:39;100807.75;;;22.84;100.00
49377;BME280;35253;34.688;33.040;2022-10-31T00:05:04;100803.97;;;22.77;100.00
49377;BME280;35253;34.688;33.040;2022-10-31T00:07:30;100806.75;;;22.85;100.00
49377;BME280;35253;34.688;33.040;2022-10-31T00:09:55;100800.09;;;22.80;100.00
49377;BME280;35253;34.688;33.040;2022-10-31T00:12:21;100794.00;;;22.86;100.00
49377;BME280;35253;34.688;33.040;2022-10-31T00:14:46;100789.44;;;22.95;100.00
49377;BME280;35253;34.688;33.040;2022-10-31T00:17:11;100785.66;;;22.79;100.00
49377;BME280;35253;34.688;33.040;2022-10-31T00:19:37;100778.22;;;22.98;100.00
49377;BME280;35253;34.688;33.040;2022-10-31T00:22:02;100790.09;;;22.88;100.00
49377;BME280;35253;34.688;33.040;2022-10-31T00:24:28;100787.38;;;22.88;100.00
49377;BME280;35253;34.688;33.040;2022-10-31T00:26:53;100784.28;;;22.75;100.00
49377;BME280;35253;34.688;33.040;2022-10-31T00:29:18;100785.66;;;22.79;100.00
49377;BME280;35253;34.688;33.040;2022-10-31T00:31:44;100788.03;;;22.90;100.00
49377;BME280;35253;34.688;33.040;2022-10-31T00:34:09;100770.22;;;22.96;100.00
49377;BME280;35253;34.688;33.040;2022-10-31T00:36:35;100779.91;;;22.99;100.00
49377;BME280;35253;34.688;33.040;2022-10-31T00:39:00;100770.06;;;23.06;100.00
49377;BME280;35253;34.688;33.040;2022-10-31T00:41:26;100772.06;;;23.04;100.00
49377;BME280;35253;34.688;33.040;2022-10-31T00:43:51;100773.44;;;23.00;100.00
49377;BME280;35253;34.688;33.040;2022-10-31T00:46:17;100772.06;;;23.04;100.00
49377;BME280;35253;34.688;33.040;2022-10-31T00:48:42;100771.56;;;23.00;100.00
49377;BME280;35253;34.688;33.040;2022-10-31T00:51:08;100767.69;;;23.03;100.00
49377;BME280;35253;34.688;33.040;2022-10-31T00:53:33;100773.78;;;22.88;100.00
49377;BME280;35253;34.688;33.040;2022-10-31T00:55:59;100778.88;;;22.91;100.00
49377;BME280;35253;34.688;33.040;2022-10-31T00:58:25;100771.06;;;22.97;100.00
49377;BME280;35253;34.688;33.040;2022-10-31T01:00:50;100772.78;;;22.98;100.00
49377;BME280;35253;34.688;33.040;2022-10-31T01:03:20;100777.34;;;23.05;100.00
49377;BME280;35253;34.688;33.040;2022-10-31T01:05:54;100775.50;;;22.98;100.00
49377;BME280;35253;34.688;33.040;2022-10-31T01:08:19;100776.34;;;22.98;100.00
49377;BME280;35253;34.688;33.040;2022-10-31T01:10:45;100777.88;;;23.01;100.00
49377;BME280;35253;34.688;33.040;2022-10-31T01:13:10;100784.00;;;22.95;100.00
49377;BME280;35253;34.688;33.040;2022-10-31T01:15:36;100771.22;;;22.95;100.00
49377;BME280;35253;34.688;33.040;2022-10-31T01:18:01;100774.47;;;22.99;100.00
49377;BME280;35253;34.688;33.040;2022-10-31T01:20:27;100782.44;;;22.92;100.00
49377;BME280;35253;34.688;33.040;2022-10-31T01:22:52;100778.50;;;22.78;100.00
49377;BME280;35253;34.688;33.040;2022-10-31T01:25:17;100779.22;;;22.80;100.00
49377;BME280;35253;34.688;33.040;2022-10-31T01:27:43;100786.34;;;22.81;100.00
49377;BME280;35253;34.688;33.040;2022-10-31T01:30:08;100777.47;;;22.71;100.00
49377;BME280;35253;34.688;33.040;2022-10-31T01:32:34;100776.81;;;22.77;100.00
49377;BME280;35253;34.688;33.040;2022-10-31T01:34:59;100782.44;;;22.84;100.00
49377;BME280;35253;34.688;33.040;2022-10-31T01:37:25;100788.38;;;22.87;100.00
49377;BME280;35253;34.688;33.040;2022-10-31T01:39:50;100785.00;;;22.85;100.00
49377;BME280;35253;34.688;33.040;2022-10-31T01:42:18;100786.72;;;22.95;100.00
49377;BME280;35253;34.688;33.040;2022-10-31T01:47:17;100788.03;;;22.90;100.00
49377;BME280;35253;34.688;33.040;2022-10-31T01:49:46;100784.66;;;22.97;100.00
49377;BME280;35253;34.688;33.040;2022-10-31T01:52:14;100778.56;;;22.95;100.00
49377;BME280;35253;34.688;33.040;2022-10-31T01:54:45;100779.56;;;23.02;100.00
49377;BME280;35253;34.688;33.040;2022-10-31T01:57:14;100785.66;;;22.96;100.00
49377;BME280;35253;34.688;33.040;2022-10-31T01:59:41;100785.50;;;22.89;100.00
49377;BME280;35253;34.688;33.040;2022-10-31T02:02:08;100783.13;;;22.86;100.00
49377;BME280;35253;34.688;33.040;2022-10-31T02:04:33;100780.56;;;22.76;100.00
49377;BME280;35253;34.688;33.040;2022-10-31T02:07:03;100774.59;;;22.73;100.00
49377;BME280;35253;34.688;33.040;2022-10-31T02:09:31;100783.44;;;22.83;100.00
49377;BME280;35253;34.688;33.040;2022-10-31T02:11:57;100787.16;;;22.74;100.00
49377;BME280;35253;34.688;33.040;2022-10-31T02:14:24;100777.06;;;22.58;100.00
49377;BME280;35253;34.688;33.040;2022-10-31T02:16:50;100788.31;;;22.63;100.00
49377;BME280;35253;34.688;33.040;2022-10-31T02:19:18;100784.88;;;22.53;100.00
49377;BME280;35253;34.688;33.040;2022-10-31T02:21:49;100789.44;;;22.53;100.00
49377;BME280;35253;34.688;33.040;2022-10-31T02:29:35;100793.38;;;22.58;100.00
49377;BME280;35253;34.688;33.040;2022-10-31T02:34:38;100811.72;;;22.56;100.00
49377;BME280;35253;34.688;33.040;2022-10-31T02:42:13;100802.88;;;22.54;100.00
49377;BME280;35253;34.688;33.040;2022-10-31T02:47:13;100806.28;;;22.56;100.00
49377;BME280;35253;34.688;33.040;2022-10-31T02:52:17;100816.75;;;22.43;100.00
49377;BME280;35253;34.688;33.040;2022-10-31T02:54:44;100817.81;;;22.50;100.00
49377;BME280;35253;34.688;33.040;2022-10-31T02:57:10;100814.72;;;22.45;100.00
49377;BME280;35253;34.688;33.040;2022-10-31T02:59:36;100820.13;;;22.37;100.00
49377;BME280;35253;34.688;33.040;2022-10-31T03:02:17;100826.63;;;22.52;100.00
49377;BME280;35253;34.688;33.040;2022-10-31T03:04:49;100825.28;;;22.48;100.00
49377;BME280;35253;34.688;33.040;2022-10-31T03:12:49;100827.94;;;22.40;100.00
49377;BME280;35253;34.688;33.040;2022-10-31T03:15:23;100832.03;;;22.44;100.00
49377;BME280;35253;34.688;33.040;2022-10-31T03:20:16;100833.38;;;22.40;100.00
49377;BME280;35253;34.688;33.040;2022-10-31T03:22:45;100832.16;;;22.34;100.00
49377;BME280;35253;34.688;33.040;2022-10-31T03:25:12;100832.97;;;22.27;100.00
49377;BME280;35253;34.688;33.040;2022-10-31T03:27:38;100838.66;;;22.41;100.00
49377;BME280;35253;34.688;33.040;2022-10-31T03:30:05;100831.69;;;22.39;100.00
49377;BME280;35253;34.688;33.040;2022-10-31T03:32:34;100839.84;;;22.39;100.00
49377;BME280;35253;34.688;33.040;2022-10-31T03:35:02;100838.09;;;22.30;100.00
49377;BME280;35253;34.688;33.040;2022-10-31T03:37:29;100846.28;;;22.38;100.00
49377;BME280;35253;34.688;33.040;2022-10-31T03:39:57;100833.31;;;22.24;100.00
49377;BME280;35253;34.688;33.040;2022-10-31T03:42:24;100840.13;;;22.28;100.00
49377;BME280;35253;34.688;33.040;2022-10-31T03:44:55;100837.38;;;22.20;100.00
49377;BME280;35253;34.688;33.040;2022-10-31T03:47:21;100844.00;;;22.25;100.00
49377;BME280;35253;34.688;33.040;2022-10-31T03:49:47;100842.03;;;22.01;100.00
49377;BME280;35253;34.688;33.040;2022-10-31T03:54:45;100843.44;;;22.14;100.00
49377;BME280;35253;34.688;33.040;2022-10-31T03:59:59;100842.16;;;22.00;100.00
49377;BME280;35253;34.688;33.040;2022-10-31T04:02:28;100844.16;;;22.16;100.00
49377;BME280;35253;34.688;33.040;2022-10-31T04:04:55;100848.53;;;22.17;100.00
49377;BME280;35253;34.688;33.040;2022-10-31T04:07:21;100855.78;;;22.08;100.00
49377;BME280;35253;34.688;33.040;2022-10-31T04:09:49;100856.31;;;22.12;100.00
49377;BME280;35253;34.688;33.040;2022-10-31T04:12:16;100857.50;;;22.09;100.00
49377;BME280;35253;34.688;33.040;2022-10-31T04:14:42;100869.22;;;22.10;100.00
49377;BME280;35253;34.688;33.040;2022-10-31T04:17:10;100861.88;;;22.02;100.00
49377;BME280;35253;34.688;33.040;2022-10-31T04:19:37;100862.66;;;21.94;100.00
49377;BME280;35253;34.688;33.040;2022-10-31T04:22:02;100868.31;;;22.01;100.00
49377;BME280;35253;34.688;33.040;2022-10-31T04:24:28;100873.13;;;21.89;100.00
49377;BME280;35253;34.688;33.040;2022-10-31T04:26:53;100872.19;;;21.98;100.00
49377;BME280;35253;34.688;33.040;2022-10-31T04:29:19;100878.00;;;22.03;100.00
49377;BME280;35253;34.688;33.040;2022-10-31T04:31:44;100878.94;;;21.94;100.00
49377;BME280;35253;34.688;33.040;2022-10-31T04:34:10;100880.25;;;21.90;100.00
49377;BME280;35253;34.688;33.040;2022-10-31T04:36:35;100886.78;;;21.97;100.00
49377;BME280;35253;34.688;33.040;2022-10-31T04:39:00;100881.25;;;22.07;100.00
49377;BME280;35253;34.688;33.040;2022-10-31T04:41:26;100884.06;;;22.23;100.00
49377;BME280;35253;34.688;33.040;2022-10-31T04:43:51;100888.84;;;22.29;100.00
49377;BME280;35253;34.688;33.040;2022-10-31T04:46:17;100886.75;;;22.15;100.00
49377;BME280;35253;34.688;33.040;2022-10-31T04:48:42;100891.09;;;22.08;100.00
49377;BME280;35253;34.688;33.040;2022-10-31T04:51:07;100882.16;;;22.16;100.00
49377;BME280;35253;34.688;33.040;2022-10-31T04:53:33;100889.56;;;22.06;100.00
49377;BME280;35253;34.688;33.040;2022-10-31T04:55:59;100889.94;;;22.11;100.00
49377;BME280;35253;34.688;33.040;2022-10-31T04:58:25;100902.13;;;22.07;100.00
49377;BME280;35253;34.688;33.040;2022-10-31T05:00:52;100898.72;;;22.05;100.00
49377;BME280;35253;34.688;33.040;2022-10-31T05:03:18;100895.09;;;22.22;100.00
49377;BME280;35253;34.688;33.040;2022-10-31T05:05:43;100902.66;;;22.36;100.00
49377;BME280;35253;34.688;33.040;2022-10-31T05:08:09;100899.41;;;22.32;100.00
49377;BME280;35253;34.688;33.040;2022-10-31T05:10:34;100896.59;;;22.42;100.00
49377;BME280;35253;34.688;33.040;2022-10-31T05:13:00;100909.84;;;22.45;100.00
49377;BME280;35253;34.688;33.040;2022-10-31T05:15:27;100894.09;;;22.57;100.00
49377;BME280;35253;34.688;33.040;2022-10-31T05:17:54;100908.91;;;22.62;100.00
49377;BME280;35253;34.688;33.040;2022-10-31T05:20:21;100912.00;;;22.67;100.00
49377;BME280;35253;34.688;33.040;2022-10-31T05:22:49;100913.16;;;22.65;100.00
49377;BME280;35253;34.688;33.040;2022-10-31T05:25:15;100913.09;;;22.82;100.00
49377;BME280;35253;34.688;33.040;2022-10-31T05:27:41;100909.00;;;22.78;100.00
49377;BME280;35253;34.688;33.040;2022-10-31T05:30:07;100919.19;;;22.76;100.00
49377;BME280;35253;34.688;33.040;2022-10-31T05:32:42;100917.66;;;22.82;100.00
49377;BME280;35253;34.688;33.040;2022-10-31T05:35:10;100922.94;;;22.83;100.00
49377;BME280;35253;34.688;33.040;2022-10-31T05:37:35;100927.41;;;22.92;100.00
49377;BME280;35253;34.688;33.040;2022-10-31T05:40:04;100926.91;;;22.97;100.00
49377;BME280;35253;34.688;33.040;2022-10-31T05:42:30;100929.50;;;23.07;100.00
49377;BME280;35253;34.688;33.040;2022-10-31T05:44:56;100931.91;;;23.18;100.00
49377;BME280;35253;34.688;33.040;2022-10-31T05:47:22;100924.81;;;23.33;100.00
49377;BME280;35253;34.688;33.040;2022-10-31T05:49:48;100930.78;;;23.36;100.00
49377;BME280;35253;34.688;33.040;2022-10-31T05:52:13;100933.53;;;23.45;100.00
49377;BME280;35253;34.688;33.040;2022-10-31T05:54:39;100936.25;;;23.53;100.00
49377;BME280;35253;34.688;33.040;2022-10-31T05:57:04;100946.66;;;23.65;100.00
49377;BME280;35253;34.688;33.040;2022-10-31T05:59:30;100944.97;;;23.72;100.00
49377;BME280;35253;34.688;33.040;2022-10-31T06:01:55;100947.00;;;23.78;100.00
49377;BME280;35253;34.688;33.040;2022-10-31T06:04:21;100947.19;;;23.85;100.00
49377;BME280;35253;34.688;33.040;2022-10-31T06:06:46;100950.63;;;23.95;100.00
49377;BME280;35253;34.688;33.040;2022-10-31T06:09:11;100947.00;;;24.11;100.00
49377;BME280;35253;34.688;33.040;2022-10-31T06:11:37;100948.03;;;24.10;100.00
49377;BME280;35253;34.688;33.040;2022-10-31T06:14:05;100949.75;;;24.19;100.00
49377;BME280;35253;34.688;33.040;2022-10-31T06:16:31;100959.63;;;24.28;100.00
49377;BME280;35253;34.688;33.040;2022-10-31T06:18:56;100957.94;;;24.35;100.00
49377;BME280;35253;34.688;33.040;2022-10-31T06:21:21;100955.50;;;24.40;100.00
49377;BME280;35253;34.688;33.040;2022-10-31T06:23:47;100952.09;;;24.46;100.00
49377;BME280;35253;34.688;33.040;2022-10-31T06:26:13;100955.81;;;24.53;100.00
49377;BME280;35253;34.688;33.040;2022-10-31T06:28:39;100954.44;;;24.57;100.00
49377;BME280;35253;34.688;33.040;2022-10-31T06:31:04;100964.66;;;24.63;100.00
49377;BME280;35253;34.688;33.040;2022-10-31T06:33:30;100961.06;;;24.71;100.00
49377;BME280;35253;34.688;33.040;2022-10-31T06:35:55;100961.06;;;24.71;100.00
49377;BME280;35253;34.688;33.040;2022-10-31T06:38:21;100957.47;;;24.79;100.00
49377;BME280;35253;34.688;33.040;2022-10-31T06:40:46;100962.22;;;24.85;100.00
49377;BME280;35253;34.688;33.040;2022-10-31T06:43:12;100960.50;;;24.84;100.00
49377;BME280;35253;34.688;33.040;2022-10-31T06:45:39;100960.00;;;24.80;100.00
49377;BME280;35253;34.688;33.040;2022-10-31T06:48:04;100964.13;;;24.92;100.00
49377;BME280;35253;34.688;33.040;2022-10-31T06:50:30;100962.16;;;25.09;100.00
49377;BME280;35253;34.688;33.040;2022-10-31T06:52:56;100963.66;;;25.11;100.00
49377;BME280;35253;34.688;33.040;2022-10-31T06:55:22;100970.66;;;25.14;100.00
49377;BME280;35253;34.688;33.040;2022-10-31T06:57:56;100968.28;;;25.11;100.00
49377;BME280;35253;34.688;33.040;2022-10-31T07:00:22;100969.00;;;25.05;100.00
49377;BME280;35253;34.688;33.040;2022-10-31T07:02:59;100968.63;;;25.08;100.00
49377;BME280;35253;34.688;33.040;2022-10-31T07:05:25;100961.84;;;25.04;100.00
49377;BME280;35253;34.688;33.040;2022-10-31T07:07:55;100968.97;;;25.13;100.00
49377;BME280;35253;34.688;33.040;2022-10-31T07:10:21;100969.56;;;25.31;100.00
49377;BME280;35253;34.688;33.040;2022-10-31T07:12:46;100974.00;;;25.24;100.00
49377;BME280;35253;34.688;33.040;2022-10-31T07:15:12;100971.97;;;25.26;100.00
49377;BME280;35253;34.688;33.040;2022-10-31T07:17:37;100971.97;;;25.26;100.00
49377;BME280;35253;34.688;33.040;2022-10-31T07:20:03;100972.28;;;25.31;100.00
49377;BME280;35253;34.688;33.040;2022-10-31T07:22:35;100972.56;;;25.36;100.00
49377;BME280;35253;34.688;33.040;2022-10-31T07:25:01;100971.91;;;25.34;100.00
49377;BME280;35253;34.688;33.040;2022-10-31T07:27:27;100974.31;;;25.29;100.00
49377;BME280;35253;34.688;33.040;2022-10-31T07:29:52;100965.44;;;25.35;100.00
49377;BME280;35253;34.688;33.040;2022-10-31T07:32:17;100966.78;;;25.39;100.00
49377;BME280;35253;34.688;33.040;2022-10-31T07:34:43;100960.59;;;25.53;100.00
49377;BME280;35253;34.688;33.040;2022-10-31T07:37:08;100962.81;;;25.42;100.00
49377;BME280;35253;34.688;33.040;2022-10-31T07:39:34;100961.06;;;25.57;100.00
49377;BME280;35253;34.688;33.040;2022-10-31T07:41:59;100962.09;;;25.56;100.00
49377;BME280;35253;34.688;33.040;2022-10-31T07:44:24;100956.16;;;25.44;100.00
49377;BME280;35253;34.688;33.040;2022-10-31T07:46:50;100960.25;;;25.48;100.00
49377;BME280;35253;34.688;33.040;2022-10-31T07:49:15;100960.88;;;25.58;100.00
49377;BME280;35253;34.688;33.040;2022-10-31T07:51:41;100965.00;;;25.54;100.00
49377;BME280;35253;34.688;33.040;2022-10-31T07:54:06;100962.28;;;25.46;100.00
49377;BME280;35253;34.688;33.040;2022-10-31T07:56:32;100955.91;;;25.62;100.00
49377;BME280;35253;34.688;33.040;2022-10-31T07:58:57;100962.88;;;25.65;100.00
49377;BME280;35253;34.688;33.040;2022-10-31T08:01:23;100956.03;;;25.69;100.00
49377;BME280;35253;34.688;33.040;2022-10-31T08:03:48;100956.09;;;25.61;100.00
49377;BME280;35253;34.688;33.040;2022-10-31T08:06:13;100957.84;;;25.76;100.00
49377;BME280;35253;34.688;33.040;2022-10-31T08:08:39;100951.81;;;25.81;100.00
49377;BME280;35253;34.688;33.040;2022-10-31T08:11:04;100950.56;;;25.69;100.00
49377;BME280;35253;34.688;33.040;2022-10-31T08:13:30;100952.19;;;25.78;100.00
49377;BME280;35253;34.688;33.040;2022-10-31T08:15:57;100944.91;;;25.93;100.00
49377;BME280;35253;34.688;33.040;2022-10-31T08:18:28;100948.44;;;26.01;100.00
49377;BME280;35253;34.688;33.040;2022-10-31T08:20:53;100945.50;;;26.03;100.00
49377;BME280;35253;34.688;33.040;2022-10-31T08:23:19;100944.47;;;26.27;100.00
49377;BME280;35253;34.688;33.040;2022-10-31T08:25:44;100941.47;;;26.36;96.20
49377;BME280;35253;34.688;33.040;2022-10-31T08:28:11;100942.97;;;26.39;96.79
49377;BME280;35253;34.688;33.040;2022-10-31T08:30:37;100941.66;;;26.35;100.00
49377;BME280;35253;34.688;33.040;2022-10-31T08:33:09;100942.13;;;26.38;95.77
49377;BME280;35253;34.688;33.040;2022-10-31T08:35:34;100936.91;;;26.29;93.77
49377;BME280;35253;34.688;33.040;2022-10-31T08:38:00;100938.81;;;26.28;94.33
49377;BME280;35253;34.688;33.040;2022-10-31T08:40:26;100931.19;;;26.38;90.49
49377;BME280;35253;34.688;33.040;2022-10-31T08:42:59;100930.44;;;26.44;89.34
49377;BME280;35253;34.688;33.040;2022-10-31T08:45:24;100932.13;;;26.75;86.88
49377;BME280;35253;34.688;33.040;2022-10-31T08:47:50;100932.44;;;26.80;86.16
49377;BME280;35253;34.688;33.040;2022-10-31T08:50:16;100927.59;;;26.82;80.14
49377;BME280;35253;34.688;33.040;2022-10-31T08:52:41;100928.09;;;26.85;75.14
49377;BME280;35253;34.688;33.040;2022-10-31T08:55:07;100930.94;;;26.92;71.52
49377;BME280;35253;34.688;33.040;2022-10-31T08:57:32;100929.03;;;26.93;69.63
49377;BME280;35253;34.688;33.040;2022-10-31T08:59:58;100932.22;;;26.81;70.99
49377;BME280;35253;34.688;33.040;2022-10-31T09:02:23;100936.13;;;26.87;73.96
49377;BME280;35253;34.688;33.040;2022-10-31T09:04:48;100928.19;;;26.92;74.04
49377;BME280;35253;34.688;33.040;2022-10-31T09:07:14;100925.22;;;27.08;77.00
49377;BME280;35253;34.688;33.040;2022-10-31T09:09:39;100920.38;;;26.89;90.50
49377;BME280;35253;34.688;33.040;2022-10-31T09:12:05;100915.75;;;26.89;83.10
49377;BME280;35253;34.688;33.040;2022-10-31T09:14:30;100917.25;;;26.92;81.01
49377;BME280;35253;34.688;33.040;2022-10-31T09:16:56;100913.06;;;27.11;84.30
49377;BME280;35253;34.688;33.040;2022-10-31T09:19:21;100918.09;;;27.07;86.77
49377;BME280;35253;34.688;33.040;2022-10-31T09:21:46;100910.13;;;27.12;88.19
49377;BME280;35253;34.688;33.040;2022-10-31T09:24:12;100917.84;;;27.23;92.15
49377;BME280;35253;34.688;33.040;2022-10-31T09:26:37;100915.38;;;27.28;86.66
49377;BME280;35253;34.688;33.040;2022-10-31T09:29:03;100909.97;;;27.50;87.69
49377;BME280;35253;34.688;33.040;2022-10-31T09:31:29;100905.47;;;27.27;79.21
49377;BME280;35253;34.688;33.040;2022-10-31T09:33:55;100902.19;;;27.39;84.02
49377;BME280;35253;34.688;33.040;2022-10-31T09:36:20;100910.84;;;27.57;82.69
49377;BME280;35253;34.688;33.040;2022-10-31T09:38:46;100900.63;;;27.29;79.91
49377;BME280;35253;34.688;33.040;2022-10-31T09:43:47;100897.59;;;27.39;87.37
49377;BME280;35253;34.688;33.040;2022-10-31T09:51:40;100883.03;;;27.39;83.10
49377;BME280;35253;34.688;33.040;2022-10-31T09:54:16;100882.25;;;27.23;90.10
49377;BME280;35253;34.688;33.040;2022-10-31T09:56:43;100885.69;;;27.47;89.96
49377;BME280;35253;34.688;33.040;2022-10-31T09:59:17;100880.09;;;27.55;85.32
49377;BME280;35253;34.688;33.040;2022-10-31T10:01:48;100875.50;;;27.41;82.62
49377;BME280;35253;34.688;33.040;2022-10-31T10:04:19;100866.59;;;27.53;80.88
49377;BME280;35253;34.688;33.040;2022-10-31T10:06:47;100863.78;;;27.68;78.87
49377;BME280;35253;34.688;33.040;2022-10-31T10:09:14;100864.56;;;27.62;82.46
49377;BME280;35253;34.688;33.040;2022-10-31T10:17:17;100860.78;;;27.63;87.05
49377;BME280;35253;34.688;33.040;2022-10-31T10:19:50;100863.50;;;27.42;94.93
49377;BME280;35253;34.688;33.040;2022-10-31T10:22:23;100875.78;;;27.67;93.86
49377;BME280;35253;34.688;33.040;2022-10-31T10:30:18;100855.03;;;28.07;93.84
49377;BME280;35253;34.688;33.040;2022-10-31T10:33:33;100854.94;;;28.21;98.55
49377;BME280;35253;34.688;33.040;2022-10-31T10:35:33;100847.97;;;28.19;100.00
49377;BME280;35253;34.688;33.040;2022-10-31T10:38:02;100852.53;;;27.84;98.85
49377;BME280;35253;34.688;33.040;2022-10-31T10:40:34;100843.06;;;28.14;95.58
49377;BME280;35253;34.688;33.040;2022-10-31T10:45:55;100839.53;;;28.61;88.74
49377;BME280;35253;34.688;33.040;2022-10-31T10:48:43;100836.13;;;28.53;89.04
49377;BME280;35253;34.688;33.040;2022-10-31T10:51:19;100837.63;;;28.55;90.77
49377;BME280;35253;34.688;33.040;2022-10-31T10:54:07;100837.34;;;28.44;90.66
49377;BME280;35253;34.688;33.040;2022-10-31T10:56:40;100831.44;;;28.88;89.79
49377;BME280;35253;34.688;33.040;2022-10-31T10:59:13;100826.38;;;28.78;89.00
49377;BME280;35253;34.688;33.040;2022-10-31T11:01:40;100831.25;;;28.83;84.23
49377;BME280;35253;34.688;33.040;2022-10-31T11:09:27;100833.75;;;28.84;82.60
49377;BME280;35253;34.688;33.040;2022-10-31T11:11:53;100822.53;;;29.53;76.38
49377;BME280;35253;34.688;33.040;2022-10-31T11:14:19;100823.38;;;29.34;71.72
49377;BME280;35253;34.688;33.040;2022-10-31T11:16:47;100815.75;;;29.49;75.49
49377;BME280;35253;34.688;33.040;2022-10-31T11:19:18;100820.13;;;29.04;85.25
49377;BME280;35253;34.688;33.040;2022-10-31T11:21:44;100820.50;;;28.94;94.42
49377;BME280;35253;34.688;33.040;2022-10-31T11:26:36;100807.69;;;28.60;100.00
49377;BME280;35253;34.688;33.040;2022-10-31T11:29:03;100809.75;;;28.99;100.00
49377;BME280;35253;34.688;33.040;2022-10-31T11:31:30;100814.84;;;28.55;100.00
49377;BME280;35253;34.688;33.040;2022-10-31T11:33:59;100806.84;;;28.60;100.00
49377;BME280;35253;34.688;33.040;2022-10-31T11:36:32;100807.16;;;28.78;100.00
49377;BME280;35253;34.688;33.040;2022-10-31T11:38:59;100803.88;;;28.61;100.00
49377;BME280;35253;34.688;33.040;2022-10-31T11:41:33;100814.66;;;28.63;100.00
49377;BME280;35253;34.688;33.040;2022-10-31T11:44:19;100802.81;;;28.56;100.00
49377;BME280;35253;34.688;33.040;2022-10-31T11:46:50;100807.53;;;28.75;100.00
49377;BME280;35253;34.688;33.040;2022-10-31T11:49:20;100806.31;;;28.84;100.00
49377;BME280;35253;34.688;33.040;2022-10-31T11:51:49;100816.53;;;29.23;100.00
49377;BME280;35253;34.688;33.040;2022-10-31T11:54:18;100816.84;;;28.74;100.00
49377;BME280;35253;34.688;33.040;2022-10-31T11:56:45;100808.25;;;28.97;100.00
49377;BME280;35253;34.688;33.040;2022-10-31T11:59:30;100802.28;;;28.80;100.00
49377;BME280;35253;34.688;33.040;2022-10-31T12:01:57;100806.13;;;28.45;100.00
49377;BME280;35253;34.688;33.040;2022-10-31T12:04:28;100813.31;;;28.46;100.00
49377;BME280;35253;34.688;33.040;2022-10-31T12:06:55;100813.00;;;28.28;100.00
49377;BME280;35253;34.688;33.040;2022-10-31T12:09:22;100816.66;;;28.41;100.00
49377;BME280;35253;34.688;33.040;2022-10-31T12:14:35;100811.22;;;28.48;100.00
49377;BME280;35253;34.688;33.040;2022-10-31T12:17:31;100813.16;;;28.19;100.00
49377;BME280;35253;34.688;33.040;2022-10-31T12:19:59;100816.31;;;28.16;100.00
49377;BME280;35253;34.688;33.040;2022-10-31T12:25:01;100798.59;;;28.12;100.00
49377;BME280;35253;34.688;33.040;2022-10-31T12:32:32;100805.00;;;27.98;100.00
49377;BME280;35253;34.688;33.040;2022-10-31T12:57:44;100814.16;;;27.84;100.00
49377;BME280;35253;34.688;33.040;2022-10-31T13:00:07;100816.72;;;27.86;100.00
49377;BME280;35253;34.688;33.040;2022-10-31T13:03:19;100821.19;;;27.93;100.00
49377;BME280;35253;34.688;33.040;2022-10-31T13:05:31;100832.69;;;27.82;100.00
49377;BME280;35253;34.688;33.040;2022-10-31T13:08:12;100827.38;;;27.53;100.00
49377;BME280;35253;34.688;33.040;2022-10-31T13:10:44;100823.97;;;27.72;100.00
49377;BME280;35253;34.688;33.040;2022-10-31T13:13:24;100831.28;;;27.65;100.00
49377;BME280;35253;34.688;33.040;2022-10-31T13:15:53;100825.75;;;27.58;100.00
49377;BME280;35253;34.688;33.040;2022-10-31T13:18:54;100825.69;;;27.52;100.00
49377;BME280;35253;34.688;33.040;2022-10-31T13:21:21;100824.91;;;27.58;100.00
49377;BME280;35253;34.688;33.040;2022-10-31T13:23:49;100829.34;;;27.38;100.00
49377;BME280;35253;34.688;33.040;2022-10-31T13:26:37;100828.66;;;27.35;100.00
49377;BME280;35253;34.688;33.040;2022-10-31T13:31:41;100836.13;;;27.42;100.00
49377;BME280;35253;34.688;33.040;2022-10-31T13:34:16;100835.00;;;27.36;100.00
49377;BME280;35253;34.688;33.040;2022-10-31T13:36:45;100843.22;;;27.36;100.00
49377;BME280;35253;34.688;33.040;2022-10-31T13:41:49;100840.44;;;27.51;100.00
49377;BME280;35253;34.688;33.040;2022-10-31T13:46:43;100768.81;;;28.57;100.00
49377;BME280;35253;34.688;33.040;2022-10-31T13:49:23;100747.09;;;28.62;100.00
49377;BME280;35253;34.688;33.040;2022-10-31T13:51:49;100755.19;;;28.70;100.00
49377;BME280;35253;34.688;33.040;2022-10-31T13:56:49;100854.22;;;27.43;100.00
49377;BME280;35253;34.688;33.040;2022-10-31T13:59:36;100846.38;;;26.97;100.00
49377;BME280;35253;34.688;33.040;2022-10-31T14:02:02;100848.47;;;26.66;100.00
49377;BME280;35253;34.688;33.040;2022-10-31T14:04:51;100850.94;;;26.61;100.00
49377;BME280;35253;34.688;33.040;2022-10-31T14:07:18;100854.81;;;26.52;100.00
49377;BME280;35253;34.688;33.040;2022-10-31T14:12:24;100857.06;;;26.33;100.00
49377;BME280;35253;34.688;33.040;2022-10-31T14:14:52;100854.13;;;26.20;100.00
49377;BME280;35253;34.688;33.040;2022-10-31T14:17:21;100857.91;;;26.19;100.00
49377;BME280;35253;34.688;33.040;2022-10-31T14:20:00;100863.50;;;26.26;100.00
49377;BME280;35253;34.688;33.040;2022-10-31T14:22:32;100864.50;;;26.25;100.00
49377;BME280;35253;34.688;33.040;2022-10-31T14:24:58;100881.59;;;26.41;100.00